Home > Products > Valid Products > TAF

000
FTUS41 KBGM 021100
TAFAVP
TAF
KAVP 021125Z 0212/0312 VRB03KT P6SM BKN015
      TEMPO 0212/0214 FEW015 BKN035
     FM021400 14005KT P6SM BKN050
     FM030000 VRB03KT P6SM SCT050 BKN200=



000
FTUS41 KBGM 021100
TAFITH
TAF
KITH 021125Z 0212/0312 VRB03KT P6SM BKN015
      TEMPO 0212/0213 3SM BR
     FM021400 15005KT P6SM BKN040
      TEMPO 0214/0216 BKN025
     FM030000 16010KT P6SM FEW040 BKN200=



000
FTUS41 KBGM 021100
TAFBGM
TAF
KBGM 021125Z 0212/0312 13005KT 3SM BR SCT002 OVC012
      TEMPO 0212/0214 1/2SM FG BKN002
     FM021400 13005KT P6SM BKN040
      TEMPO 0214/0216 BKN025
     FM030000 15010KT P6SM SCT040 BKN200=



000
FTUS41 KBGM 021100
TAFSYR
TAF
KSYR 021125Z 0212/0312 08005KT P6SM FEW050
     FM021400 12005KT P6SM SCT060
     FM030000 16008KT P6SM FEW060 BKN200=



000
FTUS41 KBGM 021100
TAFELM
TAF
KELM 021125Z 0212/0312 VRB03KT P6SM OVC012
      TEMPO 0212/0214 OVC008
     FM021400 15005KT P6SM BKN045
      TEMPO 0214/0216 BKN025
     FM030500 VRB03KT 2SM BR FEW002 BKN200
      TEMPO 0309/0312 P6SM NSW OVC015=



000
FTUS41 KBGM 020800 AAA
TAFITH
TAF AMD
KITH 020849Z 0209/0306 VRB03KT 5SM BR BKN012
      TEMPO 0209/0213 3/4SM BR FEW012
     FM021400 15005KT P6SM SCT040
     FM030000 16010KT P6SM FEW040=



000
FTUS41 KBGM 020800 AAA
TAFBGM
TAF AMD
KBGM 020849Z 0209/0306 13005KT 4SM BR SCT002 OVC015
      TEMPO 0209/0212 1/2SM FG OVC002
     FM021400 13005KT P6SM BKN035
     FM030000 15008KT P6SM SCT040=



000
FTUS41 KBGM 020800 AAA
TAFSYR
TAF AMD
KSYR 020849Z 0209/0306 08005KT P6SM FEW050
      TEMPO 0209/0212 5SM BR
     FM021400 12005KT P6SM SCT060
     FM030000 16008KT P6SM FEW060=



000
FTUS41 KBGM 020800 AAA
TAFELM
TAF AMD
KELM 020849Z 0209/0306 00000KT 5SM BR OVC015
      TEMPO 0209/0213 3/4SM BR FEW015
     FM021400 15005KT P6SM SCT045
     FM030500 VRB03KT 2SM BR FEW002=



000
FTUS41 KBGM 020800 AAA
TAFAVP
TAF AMD
KAVP 020849Z 0209/0306 VRB03KT P6SM OVC015
     FM021400 14005KT P6SM BKN050
     FM030000 VRB03KT P6SM SCT050=



000
FTUS41 KBGM 020500
TAFITH
TAF
KITH 020536Z 0206/0306 09005KT P6SM FEW035
      TEMPO 0208/0212 3SM BR BKN015
     FM021400 15005KT P6SM SCT040
     FM030000 16010KT P6SM FEW040=



000
FTUS41 KBGM 020500
TAFBGM
TAF
KBGM 020536Z 0206/0306 06005KT P6SM OVC015
      TEMPO 0210/0212 4SM BR OVC008
     FM021400 13005KT P6SM BKN035
     FM030000 15008KT P6SM SCT040=



000
FTUS41 KBGM 020500
TAFSYR
TAF
KSYR 020536Z 0206/0306 08005KT P6SM FEW050
      TEMPO 0209/0212 5SM BR
     FM021400 12005KT P6SM SCT060
     FM030000 16008KT P6SM FEW060=



000
FTUS41 KBGM 020500
TAFAVP
TAF
KAVP 020536Z 0206/0306 VRB03KT P6SM OVC015
     FM021400 14005KT P6SM BKN050
     FM030000 VRB03KT P6SM SCT050=



000
FTUS41 KBGM 020500
TAFELM
TAF
KELM 020536Z 0206/0306 VRB03KT P6SM SCT040
      TEMPO 0206/0207 2SM BR SCT002
     FM020700 00000KT 1/2SM FG VV002
      TEMPO 0213/0214 3SM BR SCT005
     FM021400 15005KT P6SM SCT045
     FM030500 VRB03KT 2SM BR FEW002=



000
FTUS41 KBGM 012300
TAFSYR
TAF
KSYR 012334Z 0200/0224 08004KT P6SM SCT050
      TEMPO 0209/0213 5SM BR
     FM021400 12005KT P6SM SCT050=



000
FTUS41 KBGM 012300
TAFAVP
TAF
KAVP 012334Z 0200/0224 09004KT P6SM SCT035
     FM020900 VRB03KT 3SM BR BKN025
     FM021400 03005KT P6SM BKN040
     FM021900 VRB04KT P6SM SCT040=



000
FTUS41 KBGM 012300
TAFBGM
TAF
KBGM 012334Z 0200/0224 08005KT P6SM SCT025
     FM020600 10004KT 4SM BR BKN025
      TEMPO 0209/0213 2SM BR BKN008
     FM021500 13005KT P6SM BKN035
     FM022000 13004KT P6SM SCT040=



000
FTUS41 KBGM 012300
TAFITH
TAF
KITH 012334Z 0200/0224 VRB05KT P6SM SCT045
     FM020600 11004KT 4SM BR SCT035
      TEMPO 0209/0213 2SM BR BKN015
     FM021400 15005KT P6SM SCT040=



000
FTUS41 KBGM 012300
TAFELM
TAF
KELM 012334Z 0200/0224 VRB03KT P6SM SCT035
     FM020500 VRB03KT 5SM BR SCT025
      TEMPO 0205/0207 2SM BR SCT002
     FM020700 00000KT 1/2SM FG VV002
      TEMPO 0213/0214 3SM BR BKN002
     FM021400 15004KT P6SM SCT035=



000
FTUS41 KBGM 012000 AAA
TAFITH
TAF AMD
KITH 012008Z 0120/0218 VRB05KT P6SM BKN035
      TEMPO 0120/0122 BKN025
     FM020200 12004KT P6SM SCT050
      TEMPO 0208/0212 3SM BR BKN010
     FM021500 14006KT P6SM BKN040=



000
FTUS41 KBGM 011700
TAFITH
TAF
KITH 011731Z 0118/0218 02005KT P6SM BKN025
     FM011900 02005KT P6SM BKN035
     FM020200 12004KT P6SM SCT050
      TEMPO 0208/0212 3SM BR BKN010
     FM021500 14006KT P6SM BKN040=



000
FTUS41 KBGM 011700
TAFSYR
TAF
KSYR 011731Z 0118/0218 02004KT P6SM BKN050
     FM020000 12004KT P6SM SCT050
      TEMPO 0208/0212 5SM BR BKN020
     FM021500 12006KT P6SM SCT050=



000
FTUS41 KBGM 011700
TAFBGM
TAF
KBGM 011731Z 0118/0218 08006KT P6SM BKN025
     FM012000 08006KT P6SM BKN035
      TEMPO 0208/0212 2SM BR BKN008
     FM021400 09005KT P6SM BKN030=



000
FTUS41 KBGM 011700
TAFELM
TAF
KELM 011731Z 0118/0218 02005KT P6SM BKN035
     FM020200 VRB03KT P6SM SCT035
     FM020600 VRB03KT 2SM BR SCT025
      TEMPO 0208/0212 VRB03KT 1/2SM FG VV002
     FM021500 14005KT P6SM SCT050=



000
FTUS41 KBGM 011700
TAFAVP
TAF
KAVP 011731Z 0118/0218 03005KT P6SM BKN045
     FM020300 VRB03KT P6SM SCT035
      TEMPO 0208/0212 3SM BR BKN015
     FM021400 02005KT P6SM BKN040=



000
FTUS41 KBGM 011400 AAA
TAFBGM
TAF AMD
KBGM 011418Z 0114/0212 13005KT P6SM BKN009 OVC012
      TEMPO 0114/0115 5SM BR SCT009 OVC015
     FM011500 15008KT P6SM BKN025
      TEMPO 0115/0116 OVC015
     FM020000 15005KT P6SM SCT035
      TEMPO 0208/0212 3SM BR=



000
FTUS41 KBGM 011100 AAA
TAFBGM
TAF AMD
KBGM 011153Z 0112/0212 13005KT 3SM BR SCT002
      TEMPO 0112/0114 1/4SM FG BKN002
     FM011400 15008KT P6SM BKN035
      TEMPO 0114/0116 OVC025
     FM020000 15005KT P6SM SCT035
      TEMPO 0208/0212 3SM BR=



000
FTUS41 KBGM 011100
TAFBGM
TAF
KBGM 011128Z 0112/0212 13005KT 4SM BR SCT015 OVC060
      TEMPO 0112/0114 2SM BR OVC015
     FM011400 15008KT P6SM BKN035
      TEMPO 0114/0116 OVC025
     FM020000 15005KT P6SM SCT035
      TEMPO 0208/0212 3SM BR=



000
FTUS41 KBGM 011100
TAFITH
TAF
KITH 011128Z 0112/0212 VRB03KT 3SM BR SCT012 OVC060
      TEMPO 0112/0114 1 1/2SM BR OVC012
     FM011400 16008KT P6SM BKN035
      TEMPO 0114/0116 OVC025
     FM020000 VRB03KT P6SM SCT035
      TEMPO 0208/0212 3SM BR=



000
FTUS41 KBGM 011100
TAFELM
TAF
KELM 011128Z 0112/0212 00000KT 4SM BR SCT008 OVC015
      TEMPO 0112/0114 2SM BR OVC008
     FM011400 11005KT P6SM OVC025
     FM011600 13005KT P6SM BKN045
     FM020000 00000KT P6SM SCT035
     FM020500 00000KT 2SM BR SCT002
     FM020700 00000KT 1/2SM FG OVC002=



000
FTUS41 KBGM 011100
TAFAVP
TAF
KAVP 011128Z 0112/0212 VRB03KT P6SM SCT015 OVC060
      TEMPO 0112/0115 -SHRA OVC015
     FM011500 14005KT P6SM SCT025 BKN045
     FM020000 VRB03KT P6SM SCT035
      TEMPO 0208/0212 3SM BR BKN015=



000
FTUS41 KBGM 011100
TAFSYR
TAF
KSYR 011128Z 0112/0212 VRB03KT 4SM BR SCT025 OVC040
     FM011500 13008KT P6SM BKN050
     FM020000 VRB03KT P6SM SCT035=



000
FTUS41 KBGM 010800 AAA
TAFITH
TAF AMD
KITH 010853Z 0109/0206 VRB03KT 3SM BR SCT002 OVC060
      TEMPO 0109/0113 1/2SM FG OVC002
     FM011400 VRB03KT 5SM BR BKN025
     FM011700 09005KT P6SM BKN035
     FM020000 VRB03KT P6SM SCT035
     FM020400 VRB03KT 3SM BR BKN015=



000
FTUS41 KBGM 010800 AAA
TAFELM
TAF AMD
KELM 010853Z 0109/0206 00000KT 1/2SM FG OVC002
      TEMPO 0112/0115 3SM BR SCT002 BKN040
     FM011500 VRB03KT P6SM BKN045
     FM020000 00000KT P6SM SCT035
     FM020400 00000KT 2SM BR SCT002=



000
FTUS41 KBGM 010800 AAA
TAFSYR
TAF AMD
KSYR 010853Z 0109/0206 VRB03KT 4SM BR SCT025 OVC040
      TEMPO 0110/0114 OVC025
     FM011500 11005KT P6SM BKN045
     FM020000 VRB03KT P6SM SCT035=



000
FTUS41 KBGM 010800 AAA
TAFBGM
TAF AMD
KBGM 010853Z 0109/0206 13005KT 1SM BR OVC002
      TEMPO 0109/0113 3SM BR SCT002 OVC025
     FM011300 10005KT 3SM BR BKN025
     FM011600 11008KT P6SM BKN035
     FM020000 11005KT P6SM SCT035
     FM020400 11005KT 3SM BR BKN015=



000
FTUS41 KBGM 010800 AAA
TAFAVP
TAF AMD
KAVP 010853Z 0109/0206 VRB03KT P6SM OVC015
     FM011400 10005KT P6SM BKN025
     FM011600 14005KT P6SM BKN045
     FM020000 VRB03KT P6SM SCT035=



000
FTUS41 KBGM 010500 RRA
TAFITH
TAF
KITH 010546Z 0106/0206 VRB03KT 1/2SM FG OVC001
      TEMPO 0106/0110 3SM BR SCT001 BKN025
     FM011400 VRB03KT 4SM BR BKN025
     FM011700 09005KT P6SM BKN035
     FM020000 VRB03KT P6SM SCT035
     FM020400 VRB03KT 3SM BR BKN015=



000
FTUS41 KBGM 010500 RRA
TAFAVP
TAF
KAVP 010546Z 0106/0206 10005KT P6SM SCT025 BKN070
      TEMPO 0106/0108 5SM BR BKN025
     FM010800 VRB03KT 3SM BR OVC015
     FM011400 10005KT P6SM BKN025
     FM011600 14005KT P6SM BKN045
     FM020000 VRB03KT P6SM SCT035=



000
FTUS41 KBGM 010500 RRA
TAFBGM
TAF
KBGM 010546Z 0106/0206 15005KT 3SM BR SCT008 BKN070
      TEMPO 0106/0109 1SM BR OVC008
     FM010900 13005KT 1/2SM FG OVC002
     FM011300 10005KT 3SM BR BKN025
     FM011600 11008KT P6SM BKN035
     FM020000 11005KT P6SM SCT035
     FM020400 11005KT 3SM BR BKN015=



000
FTUS41 KBGM 010500 RRA
TAFELM
TAF
KELM 010546Z 0106/0206 00000KT 3SM BR SCT005 OVC025
      TEMPO 0106/0108 1SM BR OVC005
     FM010800 00000KT 1/2SM FG OVC002
     FM011400 00000KT 3SM BR SCT002
     FM011500 VRB03KT P6SM BKN045
     FM020000 00000KT P6SM SCT035
     FM020400 00000KT 2SM BR SCT002=



000
FTUS41 KBGM 010500 RRA
TAFSYR
TAF
KSYR 010546Z 0106/0206 VRB03KT P6SM BKN060
      TEMPO 0109/0113 3SM BR OVC025
     FM011500 11005KT P6SM BKN045
     FM020000 VRB03KT P6SM SCT035=



000
FTUS41 KBGM 010100 AAA
TAFITH
TAF AMD
KITH 010108Z 0101/0124 VRB03KT P6SM SCT040 BKN080
      TEMPO 0101/0103 5SM -SHRA BR
     FM010400 VRB03KT 4SM BR BKN050
     FM010800 VRB03KT 2SM BR SCT002 SCT050
      TEMPO 0108/0112 1/2SM FG OVC002
     FM011400 VRB03KT P6SM BKN025
     FM011800 VRB05KT P6SM BKN045=



000
FTUS41 KBGM 010100 AAA
TAFSYR
TAF AMD
KSYR 010103Z 0101/0124 05006KT P6SM SCT040 BKN080
      TEMPO 0101/0102 -TSRA BKN040CB
     FM010600 VRB03KT 5SM BR SCT025 BKN045
      TEMPO 0109/0113 2SM BR BKN025
     FM011500 09003KT P6SM BKN040=



000
FTUS41 KBGM 010000 AAA
TAFELM
TAF AMD
KELM 010008Z 0100/0124 VRB03KT 5SM BR BKN045
     FM010300 VRB03KT 4SM BR SCT045 BKN070
      TEMPO 0103/0105 2SM BR SCT002
     FM010500 00000KT 1/2SM FG OVC002
     FM011400 00000KT 3SM BR SCT002
     FM011500 VRB03KT P6SM BKN045=



000
FTUS41 KBGM 302300
TAFBGM
TAF
KBGM 302332Z 0100/0124 15005KT P6SM SCT040 BKN080
      TEMPO 0101/0103 5SM -SHRA BR BKN040
     FM010300 11004KT 5SM BR BKN060
     FM010600 VRB03KT 2SM BR SCT002 SCT060
      TEMPO 0108/0112 1/2SM FG OVC002
     FM011300 10004KT P6SM BKN025
     FM011600 11008KT P6SM BKN045=



000
FTUS41 KBGM 302300
TAFAVP
TAF
KAVP 302332Z 0100/0124 VRB03KT P6SM BKN070
      TEMPO 0100/0102 -SHRA
     FM010500 10003KT P6SM SCT025 BKN070
      TEMPO 0105/0107 5SM BR BKN025
     FM010700 VRB03KT 3SM BR BKN015
     FM011400 10003KT P6SM BKN025
     FM011600 VRB03KT P6SM BKN045=



000
FTUS41 KBGM 302300
TAFSYR
TAF
KSYR 302332Z 0100/0124 05006KT P6SM SCT040 BKN080
      TEMPO 0100/0102 -SHRA BKN040
     FM010600 VRB03KT 5SM BR SCT025 BKN045
      TEMPO 0109/0113 2SM BR BKN025
     FM011500 09003KT P6SM BKN040=



000
FTUS41 KBGM 302300
TAFITH
TAF
KITH 302332Z 0100/0124 15005KT P6SM SCT040 BKN080
     FM010400 VRB03KT 4SM BR BKN050
     FM010800 VRB03KT 2SM BR SCT002 SCT050
      TEMPO 0108/0112 1/2SM FG OVC002
     FM011400 VRB03KT P6SM BKN025
     FM011800 VRB05KT P6SM BKN045=



000
FTUS41 KBGM 302300
TAFELM
TAF
KELM 302332Z 0100/0124 06004KT P6SM BKN045
      TEMPO 0101/0103 5SM BR
     FM010300 VRB03KT 4SM BR SCT045 BKN070
     FM010500 00000KT 1/2SM FG OVC002
     FM011400 00000KT 3SM BR SCT002
     FM011500 VRB03KT P6SM BKN045=



000
FTUS41 KBGM 302100 AAC
TAFELM
TAF AMD
KELM 302113Z 3021/0118 04004KT P6SM -SHRA BKN050
      TEMPO 3021/3022 6SM -TSRA OVC035CB
     FM010300 VRB03KT 3SM BR SCT002 BKN070
     FM010600 00000KT 1/2SM FG OVC002
     FM011400 00000KT 3SM BR SCT002
     FM011500 VRB03KT P6SM BKN035=



000
FTUS41 KBGM 302000 AAA
TAFITH
TAF AMD
KITH 302016Z 3020/0118 15005KT P6SM BKN050
      TEMPO 3021/3023 4SM TSRA OVC035CB
     FM010300 VRB03KT 3SM BR SCT002 BKN070
      TEMPO 0108/0112 1 1/2SM BR OVC002
     FM011400 14005KT P6SM BKN025=



000
FTUS41 KBGM 301900 AAB
TAFBGM
TAF AMD
KBGM 301926Z 3019/0118 12010KT P6SM -SHRA BKN045
      TEMPO 3019/3021 -TSRA BKN040CB
     FM302200 12005KT P6SM BKN040
      TEMPO 3022/0102 -SHRA
     FM010600 VRB03KT 3SM BR SCT002 BKN070
      TEMPO 0108/0112 1 1/2SM BR OVC002
     FM011300 10004KT P6SM BKN030=



000
FTUS41 KBGM 301900 AAB
TAFELM
TAF AMD
KELM 301926Z 3019/0118 14004KT P6SM -SHRA BKN050
      TEMPO 3019/3021 4SM TSRA OVC035CB
     FM010300 VRB03KT 3SM BR SCT002 BKN070
     FM010600 00000KT 1/2SM FG OVC002
     FM011400 00000KT 3SM BR SCT002
     FM011500 VRB03KT P6SM BKN035=



000
FTUS41 KBGM 301800 AAA
TAFELM
TAF AMD
KELM 301833Z 3019/0118 VRB04KT P6SM BKN050
      TEMPO 3019/3023 -SHRA
     FM010300 VRB03KT 3SM BR SCT002 BKN070
     FM010600 00000KT 1/2SM FG OVC002
     FM011400 00000KT 3SM BR SCT002
     FM011500 VRB03KT P6SM BKN035=



000
FTUS41 KBGM 301700 AAA
TAFBGM
TAF AMD
KBGM 301757Z 3018/0118 16005KT P6SM BKN045
      TEMPO 3018/3022 -TSRA BKN040CB
     FM302200 12005KT P6SM BKN040
      TEMPO 3022/0102 -SHRA
     FM010600 VRB03KT 3SM BR SCT002 BKN070
      TEMPO 0108/0112 1 1/2SM BR OVC002
     FM011300 10004KT P6SM BKN030=



000
FTUS41 KBGM 301700
TAFELM
TAF
KELM 301730Z 3018/0118 VRB04KT P6SM BKN050
     FM010300 VRB03KT 3SM BR SCT002 BKN070
     FM010600 00000KT 1/2SM FG OVC002
     FM011400 00000KT 3SM BR SCT002
     FM011500 VRB03KT P6SM BKN035=



000
FTUS41 KBGM 301700
TAFBGM
TAF
KBGM 301730Z 3018/0118 16005KT P6SM BKN045
      TEMPO 3022/0102 -SHRA
     FM010600 VRB03KT 3SM BR SCT002 BKN070
      TEMPO 0108/0112 1 1/2SM BR OVC002
     FM011300 10004KT P6SM BKN030=



000
FTUS41 KBGM 301700
TAFITH
TAF
KITH 301730Z 3018/0118 18005KT P6SM SCT040
     FM010300 VRB03KT 3SM BR SCT002 BKN070
      TEMPO 0108/0112 1 1/2SM BR OVC002
     FM011400 14005KT P6SM BKN025=



000
FTUS41 KBGM 301700
TAFSYR
TAF
KSYR 301730Z 3018/0118 11005KT P6SM SCT040
     FM302000 10003KT P6SM BKN040
     FM010900 VRB03KT 4SM BR OVC025
     FM011400 09003KT P6SM BKN040=



000
FTUS41 KBGM 301700
TAFAVP
TAF
KAVP 301730Z 3018/0118 VRB03KT P6SM BKN050
      TEMPO 3022/0102 -SHRA
     FM010600 VRB03KT 5SM BR BKN015
     FM011400 10003KT P6SM BKN035=



000
FTUS41 KBGM 301100
TAFSYR
TAF
KSYR 301130Z 3012/0112 11005KT P6SM SCT070
     FM301500 15005KT P6SM BKN050 PROB30 3021/0101 3SM SHRA BR
      OVC025
     FM010300 VRB03KT 5SM BR BKN070=



000
FTUS41 KBGM 301100
TAFAVP
TAF
KAVP 301130Z 3012/0112 VRB03KT P6SM FEW012
      TEMPO 3012/3013 3SM BR
     FM301400 VRB03KT P6SM SCT050
     FM301700 VRB03KT P6SM BKN050 PROB30 3022/0102 3SM SHRA BR
      OVC025
     FM010300 VRB03KT 5SM BR BKN070
     FM010600 VRB03KT 3SM BR BKN015=



000
FTUS41 KBGM 301100
TAFELM
TAF
KELM 301130Z 3012/0112 00000KT 1/2SM FG OVC002
      TEMPO 3012/3014 2SM BR SCT002
     FM301400 VRB03KT P6SM SCT050 BKN150
     FM301600 15005KT P6SM BKN050 PROB30 3021/0101 3SM SHRA BR
      OVC025
     FM010300 VRB03KT 3SM BR SCT002 BKN070
     FM010600 00000KT 1/2SM FG OVC002=



000
FTUS41 KBGM 301100
TAFBGM
TAF
KBGM 301130Z 3012/0112 16005KT P6SM FEW045
      TEMPO 3012/3013 3SM BR
     FM301500 16005KT P6SM BKN045 PROB30 3022/0102 3SM SHRA BR
      OVC025
     FM010300 VRB03KT 3SM BR SCT002 BKN070
      TEMPO 0108/0112 1 1/2SM BR OVC002=



000
FTUS41 KBGM 301100
TAFITH
TAF
KITH 301130Z 3012/0112 11005KT P6SM FEW060
      TEMPO 3012/3013 3SM BR
     FM301500 16005KT P6SM BKN040 PROB30 3021/0101 3SM SHRA BR
      OVC025
     FM010300 VRB03KT 3SM BR SCT002 BKN070
      TEMPO 0108/0112 1 1/2SM BR OVC002=



000
FTUS41 KBGM 300900 AAB
TAFELM
TAF AMD
KELM 300900Z 3009/0106 00000KT 1/2SM FG OVC002
      TEMPO 3012/3014 2SM BR SCT002
     FM301400 VRB03KT P6SM SCT050 BKN150
     FM301900 15005KT P6SM BKN050 PROB30 3021/0101 3SM SHRA BR
      OVC025
     FM010300 VRB03KT 3SM BR SCT002 BKN070=



000
FTUS41 KBGM 300900 AAA
TAFITH
TAF AMD
KITH 300900Z 3009/0106 VRB03KT P6SM SKC
      TEMPO 3009/3013 3SM BR
     FM301400 16005KT P6SM SCT040 BKN150
     FM301800 16005KT P6SM BKN040 PROB30 3021/0101 3SM SHRA BR
      OVC025
     FM010300 VRB03KT 3SM BR SCT002 BKN070=



000
FTUS41 KBGM 300900 AAA
TAFAVP
TAF AMD
KAVP 300900Z 3009/0106 VRB03KT P6SM FEW012
      TEMPO 3009/3013 3SM BR
     FM301400 VRB03KT P6SM SCT050
     FM301900 VRB03KT P6SM BKN050 PROB30 3022/0102 3SM SHRA BR
      OVC025
     FM010300 VRB03KT 5SM BR BKN070=



000
FTUS41 KBGM 300900 AAA
TAFSYR
TAF AMD
KSYR 300900Z 3009/0106 VRB03KT P6SM SKC
     FM301400 15005KT P6SM SCT050 BKN150
     FM301800 15005KT P6SM BKN050 PROB30 3021/0101 3SM SHRA BR
      OVC025
     FM010300 VRB03KT 5SM BR BKN070=



000
FTUS41 KBGM 300900 AAA
TAFBGM
TAF AMD
KBGM 300900Z 3009/0106 16005KT P6SM SKC
     FM301400 16005KT P6SM SCT040 BKN150
     FM301900 16005KT P6SM BKN040 PROB30 3022/0102 3SM SHRA BR
      OVC025
     FM010300 VRB03KT 3SM BR SCT002 BKN070=



000
FTUS41 KBGM 300500 AAA
TAFELM
TAF AMD
KELM 300551Z 3006/0106 00000KT 1/2SM FG OVC002
      TEMPO 3006/3008 2SM BR SCT002
     FM301400 VRB03KT P6SM SCT050 BKN150
     FM301900 15005KT P6SM BKN050 PROB30 3021/0101 3SM SHRA BR
      OVC025
     FM010300 VRB03KT 3SM BR SCT002 BKN070=



000
FTUS41 KBGM 300500 RRA
TAFELM
TAF
KELM 300545Z 3006/0106 00000KT P6SM SKC
      TEMPO 3006/3008 2SM BR SCT002
     FM300800 00000KT 1/2SM FG OVC002
     FM301400 VRB03KT P6SM SCT050 BKN150
     FM301900 15005KT P6SM BKN050 PROB30 3021/0101 3SM SHRA BR
      OVC025
     FM010300 VRB03KT 3SM BR SCT002 BKN070=



000
FTUS41 KBGM 300500 RRA
TAFBGM
TAF
KBGM 300545Z 3006/0106 16005KT P6SM SKC
     FM301400 16005KT P6SM SCT040 BKN150
     FM301900 16005KT P6SM BKN040 PROB30 3022/0102 3SM SHRA BR
      OVC025
     FM010300 VRB03KT 3SM BR SCT002 BKN070=



000
FTUS41 KBGM 300500 RRA
TAFITH
TAF
KITH 300545Z 3006/0106 VRB03KT P6SM SKC
      TEMPO 3009/3013 3SM BR
     FM301400 16005KT P6SM SCT040 BKN150
     FM301800 16005KT P6SM BKN040 PROB30 3021/0101 3SM SHRA BR
      OVC025
     FM010300 VRB03KT 3SM BR SCT002 BKN070=



000
FTUS41 KBGM 300500 RRA
TAFAVP
TAF
KAVP 300545Z 3006/0106 VRB03KT P6SM BKN200
     FM301400 VRB03KT P6SM SCT050
     FM301900 VRB03KT P6SM BKN050 PROB30 3022/0102 3SM SHRA BR
      OVC025
     FM010300 VRB03KT 5SM BR BKN070=



000
FTUS41 KBGM 300500 RRA
TAFSYR
TAF
KSYR 300545Z 3006/0106 VRB03KT P6SM SKC
     FM301400 15005KT P6SM SCT050 BKN150
     FM301800 15005KT P6SM BKN050 PROB30 3021/0101 3SM SHRA BR
      OVC025
     FM010300 VRB03KT 5SM BR BKN070=



000
FTUS41 KBGM 292300
TAFSYR
TAF
KSYR 292326Z 3000/3024 13004KT P6SM FEW200
      TEMPO 3010/3012 5SM BR
     FM301400 15004KT P6SM SCT045 BKN200
     FM301900 17006KT P6SM BKN045=



000
FTUS41 KBGM 292300
TAFBGM
TAF
KBGM 292326Z 3000/3024 14004KT P6SM SCT200
      TEMPO 3010/3012 3SM BR
     FM301400 15006KT P6SM SCT045=



000
FTUS41 KBGM 292300
TAFAVP
TAF
KAVP 292326Z 3000/3024 10003KT P6SM SCT150
     FM301400 VRB04KT P6SM SCT050
     FM302000 14006KT P6SM BKN050=



000
FTUS41 KBGM 292300
TAFITH
TAF
KITH 292326Z 3000/3024 10003KT P6SM FEW200
      TEMPO 3003/3007 4SM BR
     FM300700 VRB03KT 3SM BR SKC
     FM301200 VRB03KT P6SM SCT045
     FM301900 16004KT P6SM BKN045=



000
FTUS41 KBGM 292300
TAFELM
TAF
KELM 292326Z 3000/3024 VRB02KT P6SM FEW200
      TEMPO 3004/3006 4SM BR
     FM300600 00000KT 2SM BR SCT250
     FM300800 00000KT 1/4SM FG VV001
     FM301400 VRB03KT P6SM FEW050 SCT250
     FM301900 15006KT P6SM BKN050=



000
FTUS41 KBGM 291700
TAFSYR
TAF
KSYR 291727Z 2918/3018 11004KT P6SM FEW060 BKN200
     FM292300 13004KT P6SM SKC
      TEMPO 3008/3012 4SM BR
     FM301400 15004KT P6SM BKN050=



000
FTUS41 KBGM 291700
TAFAVP
TAF
KAVP 291727Z 2918/3018 27005KT P6SM SCT100 BKN250
     FM300000 11003KT P6SM SCT250
     FM301400 00000KT P6SM FEW060 BKN250=



000
FTUS41 KBGM 291700
TAFELM
TAF
KELM 291727Z 2918/3018 33003KT P6SM FEW060 SCT250
     FM300000 VRB02KT P6SM SKC
     FM300500 00000KT 2SM BR SCT250
     FM300800 00000KT 1/4SM FG VV001
     FM301330 VRB03KT 2SM BR SCT001
     FM301400 VRB03KT P6SM FEW050 SCT250=



000
FTUS41 KBGM 291700
TAFBGM
TAF
KBGM 291727Z 2918/3018 19003KT P6SM BKN200
     FM292300 VRB03KT P6SM SCT200
      TEMPO 3008/3012 2SM BR
     FM301400 15006KT P6SM BKN040=



000
FTUS41 KBGM 291700
TAFITH
TAF
KITH 291727Z 2918/3018 00000KT P6SM SCT040 BKN250
     FM292200 11003KT P6SM SKC
     FM300900 11003KT 4SM BR SCT015
     FM301400 VRB03KT 6SM HZ BKN050=



    US Dept of Commerce
    National Oceanic and Atmospheric Administration
    National Weather Service
    1325 East West Highway
    Silver Spring, MD 20910
    Page Author: NWS Internet Services Team
Disclaimer
Information Quality
Credits
Glossary
Privacy Policy
Freedom of Information Act (FOIA)
About Us
Career Opportunities